Overview Statistics Trail Chart Weather Telemetry Raw packets
 

This is the latest recevied weather packets stored in our database for station/object VE3EP-1. If no packets are shown the sender has not sent any weather packets the latest 10 day(s).

<< 35 36 37 38 39 40 41 >>
Time Temp. Humidity Pressure Rain* Wind** Luminosity Snow
1787863447 23.89° C 76% 1013.7 hPa 0 mm - - -
1787862847 23.89° C 74% 1013.7 hPa 0 mm - - -
1787862247 23.89° C 74% 1013.8 hPa 0 mm - - -
1787861648 23.33° C 76% 1013.7 hPa 0 mm - - -
1787861048 23.33° C 76% 1013.8 hPa 0 mm - - -
1787859248 24.44° C 72% 1013.9 hPa 0 mm - - -
1787858649 23.89° C 74% 1013.8 hPa 0 mm - - -
1787856847 23.33° C 77% 1014.1 hPa 0 mm - - -
1787856248 22.78° C 81% 1014.1 hPa 0 mm - - -
1787855648 23.33° C 77% 1013.7 hPa 0 mm - - -
1787855048 21.67° C 83% 1014.1 hPa 0 mm - - -
1787854447 21.67° C 84% 1014.2 hPa 0 mm - - -
1787853847 22.78° C 82% 1014.5 hPa 0 mm - - -
1787853248 22.22° C 82% 1014.2 hPa 0 mm - - -
1787852647 23.33° C 82% 1014.2 hPa 0 mm - - -
1787852048 22.22° C 84% 1014.3 hPa 0 mm - - -
1787851448 22.22° C 85% 1014.3 hPa 0 mm - - -
1787850248 23.33° C 81% 1013.9 hPa 0 mm - - -
1787849648 23.33° C 80% 1014.2 hPa 0 mm - - -
1787848448 23.33° C 84% 1014.2 hPa 0 mm - - -
1787847848 23.33° C 83% 1014.4 hPa 0 mm - - -
1787847248 23.33° C 81% 1014.4 hPa 0 mm - - -
1787846047 22.78° C 81% 1014.3 hPa 0 mm - - -
1787844847 21.67° C 81% 1014.1 hPa 0 mm - - -
1787844247 22.22° C 82% 1014.3 hPa 0 mm - - -

* Rain latest hour (hover to see other rain measurements)
** Current wind speed in m/s (hover to see current wind gust speed)